createdAt,value
2018-11-14T00:00:57.438Z,5.00
2018-11-14T00:03:24.961Z,5.00
2018-11-14T00:05:52.440Z,5.00
2018-11-14T00:08:21.257Z,5.00
2018-11-14T00:10:49.009Z,5.10
2018-11-14T00:13:16.785Z,5.00
2018-11-14T00:15:44.700Z,5.10
2018-11-14T00:18:12.116Z,5.00
2018-11-14T00:20:39.529Z,5.00
2018-11-14T00:23:07.027Z,5.00
2018-11-14T00:25:34.535Z,4.80
2018-11-14T00:28:02.455Z,4.80
2018-11-14T00:30:29.544Z,4.60
2018-11-14T00:32:57.251Z,4.60
2018-11-14T00:35:25.527Z,4.60
2018-11-14T00:37:52.993Z,4.50
2018-11-14T00:40:20.907Z,4.50
2018-11-14T00:42:48.669Z,4.40
2018-11-14T00:45:17.810Z,4.30
2018-11-14T00:47:46.288Z,4.30
2018-11-14T00:50:14.841Z,4.30
2018-11-14T00:52:42.873Z,4.30
2018-11-14T00:55:17.761Z,4.30
2018-11-14T00:57:46.306Z,4.20
2018-11-14T01:00:15.861Z,4.30
2018-11-14T01:02:44.368Z,4.30
2018-11-14T01:05:13.618Z,4.30
2018-11-14T01:07:41.134Z,4.30
2018-11-14T01:10:10.569Z,4.40
2018-11-14T01:12:38.386Z,4.50
2018-11-14T01:15:08.976Z,4.40
2018-11-14T01:17:37.774Z,4.30
2018-11-14T01:20:06.567Z,4.20
2018-11-14T01:22:35.255Z,4.00
2018-11-14T01:25:04.369Z,4.00
2018-11-14T01:27:31.931Z,3.90
2018-11-14T01:30:00.322Z,3.90
2018-11-14T01:32:28.106Z,3.90
2018-11-14T01:34:56.874Z,3.80
2018-11-14T01:37:24.551Z,3.70
2018-11-14T01:39:52.992Z,3.60
2018-11-14T01:42:20.847Z,3.60
2018-11-14T01:44:48.486Z,3.50
2018-11-14T01:47:15.960Z,3.60
2018-11-14T01:49:43.430Z,3.60
2018-11-14T01:52:10.858Z,3.70
2018-11-14T01:54:38.470Z,3.80
2018-11-14T01:57:06.098Z,3.90
2018-11-14T01:59:33.640Z,4.00
2018-11-14T02:02:01.156Z,3.90
2018-11-14T02:04:28.617Z,3.90
2018-11-14T02:07:02.808Z,3.90
2018-11-14T02:09:30.242Z,3.70
2018-11-14T02:11:57.830Z,3.70
2018-11-14T02:14:25.344Z,3.70
2018-11-14T02:16:52.821Z,3.80
2018-11-14T02:19:20.373Z,3.90
2018-11-14T02:21:47.812Z,4.00
2018-11-14T02:24:15.532Z,3.90
2018-11-14T02:26:43.114Z,3.90
2018-11-14T02:29:10.648Z,3.90
2018-11-14T02:31:38.172Z,3.90
2018-11-14T02:34:06.176Z,3.90
2018-11-14T02:36:33.598Z,4.00
2018-11-14T02:39:01.082Z,4.00
2018-11-14T02:41:28.630Z,4.00
2018-11-14T02:43:56.075Z,4.00
2018-11-14T02:46:23.540Z,4.00
2018-11-14T02:48:51.025Z,4.00
2018-11-14T02:51:23.429Z,4.00
2018-11-14T02:53:50.892Z,3.90
2018-11-14T02:56:18.375Z,3.90
2018-11-14T02:58:45.855Z,3.90
2018-11-14T03:01:13.306Z,3.80
2018-11-14T03:03:41.144Z,3.80
2018-11-14T03:06:08.624Z,3.80
2018-11-14T03:08:36.163Z,3.90
2018-11-14T03:11:03.927Z,3.70
2018-11-14T03:13:31.491Z,3.70
2018-11-14T03:16:00.170Z,3.70
2018-11-14T03:18:29.117Z,3.60
2018-11-14T03:20:58.323Z,3.60
2018-11-14T03:23:26.125Z,3.60
2018-11-14T03:25:53.726Z,3.60
2018-11-14T03:28:21.179Z,3.70
2018-11-14T03:30:48.749Z,3.80
2018-11-14T03:33:16.198Z,3.90
2018-11-14T03:35:49.307Z,3.90
2018-11-14T03:38:16.694Z,4.00
2018-11-14T03:40:44.277Z,3.90
2018-11-14T03:43:11.861Z,3.90
2018-11-14T03:45:39.415Z,4.00
2018-11-14T03:48:07.163Z,4.00
2018-11-14T03:50:35.477Z,3.90
2018-11-14T03:53:03.059Z,4.00
2018-11-14T03:55:30.563Z,4.00
2018-11-14T03:57:58.133Z,4.00
2018-11-14T04:00:25.657Z,4.00
2018-11-14T04:02:53.235Z,4.10
2018-11-14T04:05:20.746Z,4.20
2018-11-14T04:07:48.150Z,4.30
2018-11-14T04:10:15.690Z,4.30
2018-11-14T04:12:43.504Z,4.20
2018-11-14T04:15:12.318Z,4.30
2018-11-14T04:17:40.026Z,4.20
2018-11-14T04:20:10.190Z,4.20
2018-11-14T04:22:37.578Z,4.30
2018-11-14T04:25:06.917Z,4.40
2018-11-14T04:27:34.487Z,4.40
2018-11-14T04:30:02.019Z,4.40
2018-11-14T04:32:29.555Z,4.40
2018-11-14T04:34:57.127Z,4.40
2018-11-14T04:37:24.618Z,4.50
2018-11-14T04:39:52.060Z,4.50
2018-11-14T04:42:20.468Z,4.40
2018-11-14T04:44:47.982Z,4.40
2018-11-14T04:47:15.525Z,4.40
2018-11-14T04:49:43.206Z,4.30
2018-11-14T04:52:10.696Z,4.20
2018-11-14T04:54:38.392Z,4.30
2018-11-14T04:57:05.881Z,4.30
2018-11-14T04:59:33.307Z,4.40
2018-11-14T05:02:00.677Z,4.30
2018-11-14T05:04:28.133Z,4.40
2018-11-14T05:06:55.728Z,4.30
2018-11-14T05:09:24.506Z,4.20
2018-11-14T05:11:52.374Z,4.20
2018-11-14T05:14:19.936Z,4.10
2018-11-14T05:19:40.690Z,4.00
2018-11-14T05:22:08.196Z,3.90
2018-11-14T05:24:35.848Z,3.90
2018-11-14T05:27:03.359Z,3.90
2018-11-14T05:29:30.882Z,3.80
2018-11-14T05:31:58.334Z,3.80
2018-11-14T05:34:25.786Z,3.80
2018-11-14T05:36:53.312Z,3.90
2018-11-14T05:39:20.924Z,3.80
2018-11-14T05:44:23.903Z,3.70
2018-11-14T05:46:51.428Z,3.80
2018-11-14T05:49:18.832Z,3.70
2018-11-14T05:51:46.212Z,3.60
2018-11-14T05:54:13.646Z,3.70
2018-11-14T05:56:41.084Z,3.80
2018-11-14T05:59:08.514Z,3.60
2018-11-14T06:01:35.990Z,3.40
2018-11-14T06:04:13.855Z,3.50
2018-11-14T06:06:41.747Z,3.60
2018-11-14T06:09:11.228Z,3.60
2018-11-14T06:11:38.699Z,3.80
2018-11-14T06:14:07.549Z,3.90
2018-11-14T06:16:39.456Z,4.00
2018-11-14T06:19:08.783Z,4.00
2018-11-14T06:21:36.312Z,4.00
2018-11-14T06:24:09.413Z,3.90
2018-11-14T06:26:37.678Z,3.90
2018-11-14T06:29:05.188Z,4.00
2018-11-14T06:31:33.521Z,4.00
2018-11-14T06:34:01.822Z,4.00
2018-11-14T06:36:29.455Z,4.10
2018-11-14T06:38:57.896Z,4.10
2018-11-14T06:41:29.716Z,4.10
2018-11-14T06:43:57.133Z,4.10
2018-11-14T06:46:24.655Z,4.20
2018-11-14T06:48:52.042Z,4.00
2018-11-14T06:51:19.474Z,4.00
2018-11-14T06:53:47.059Z,4.10
2018-11-14T06:56:14.615Z,4.10
2018-11-14T06:58:42.140Z,4.20
2018-11-14T07:01:09.731Z,4.20
2018-11-14T07:03:37.276Z,4.10
2018-11-14T07:06:05.155Z,4.10
2018-11-14T07:08:32.449Z,4.20
2018-11-14T07:11:00.186Z,4.20
2018-11-14T07:13:27.558Z,4.30
2018-11-14T07:15:55.017Z,4.40
2018-11-14T07:18:22.599Z,4.40
2018-11-14T07:20:50.101Z,4.50
2018-11-14T07:23:17.557Z,4.70
2018-11-14T07:25:45.081Z,4.70
2018-11-14T07:28:12.731Z,4.70
2018-11-14T07:30:40.338Z,4.80
2018-11-14T07:33:09.169Z,5.00
2018-11-14T07:35:36.891Z,5.00
2018-11-14T07:38:52.574Z,5.00
2018-11-14T07:41:24.539Z,5.10
2018-11-14T07:43:52.051Z,5.10
2018-11-14T07:46:20.163Z,5.10
2018-11-14T07:48:48.556Z,5.10
2018-11-14T07:51:16.065Z,5.20
2018-11-14T07:53:43.496Z,5.30
2018-11-14T07:56:11.300Z,5.40
2018-11-14T07:58:38.733Z,5.50
2018-11-14T08:01:07.342Z,5.50
2018-11-14T08:03:34.889Z,5.50
2018-11-14T08:06:02.583Z,5.60
2018-11-14T08:08:30.150Z,5.60
2018-11-14T08:10:58.262Z,5.60
2018-11-14T08:13:27.059Z,5.60
2018-11-14T08:15:56.368Z,5.70
2018-11-14T08:18:24.275Z,5.60
2018-11-14T08:20:51.811Z,5.70
2018-11-14T08:23:19.249Z,5.80
2018-11-14T08:25:46.912Z,5.70
2018-11-14T08:28:14.690Z,5.80
2018-11-14T08:30:42.614Z,5.80
2018-11-14T08:33:10.119Z,5.90
2018-11-14T08:35:37.711Z,5.90
2018-11-14T08:38:05.158Z,5.90
2018-11-14T08:40:32.660Z,6.00
2018-11-14T08:43:00.931Z,6.10
2018-11-14T08:45:28.573Z,6.10
2018-11-14T08:47:55.971Z,6.30
2018-11-14T08:50:23.687Z,6.40
2018-11-14T08:52:51.165Z,6.40
2018-11-14T08:55:18.754Z,6.40
2018-11-14T08:57:46.944Z,6.30
2018-11-14T09:00:22.559Z,6.30
2018-11-14T09:02:50.489Z,6.40
2018-11-14T09:05:18.129Z,6.50
2018-11-14T09:07:45.935Z,6.60
2018-11-14T09:10:15.958Z,6.70
2018-11-14T09:12:43.826Z,6.90
2018-11-14T09:15:13.336Z,6.90
2018-11-14T09:17:40.911Z,6.90
2018-11-14T09:20:12.195Z,7.00
2018-11-14T09:22:39.694Z,7.00
2018-11-14T09:25:13.374Z,6.90
2018-11-14T09:27:42.152Z,6.90
2018-11-14T09:30:12.929Z,6.90
2018-11-14T09:32:40.394Z,6.60
2018-11-14T09:35:09.088Z,6.50
2018-11-14T09:37:36.786Z,6.50
2018-11-14T09:40:06.082Z,6.50
2018-11-14T09:42:33.643Z,6.60
2018-11-14T09:45:01.229Z,6.60
2018-11-14T09:47:28.662Z,6.70
2018-11-14T09:49:56.075Z,6.90
2018-11-14T09:52:23.578Z,7.00
2018-11-14T09:54:51.105Z,7.00
2018-11-14T09:57:18.849Z,7.00
2018-11-14T09:59:46.325Z,7.20
2018-11-14T10:02:13.810Z,7.30
2018-11-14T10:04:41.347Z,7.30
2018-11-14T10:07:08.818Z,7.30
2018-11-14T10:09:36.422Z,7.40
2018-11-14T10:12:04.559Z,7.40
2018-11-14T10:14:32.221Z,7.40
2018-11-14T10:16:59.691Z,7.40
2018-11-14T10:19:27.309Z,7.40
2018-11-14T10:21:54.769Z,7.50
2018-11-14T10:24:22.303Z,7.50
2018-11-14T10:26:50.051Z,7.60
2018-11-14T10:29:17.595Z,7.60
2018-11-14T10:31:45.159Z,7.60
2018-11-14T10:34:12.837Z,7.70
2018-11-14T10:36:40.545Z,7.70
2018-11-14T10:39:09.589Z,7.70
2018-11-14T10:41:37.478Z,7.70
2018-11-14T10:44:04.982Z,7.70
2018-11-14T10:46:32.645Z,7.70
2018-11-14T10:49:00.101Z,7.70
2018-11-14T10:51:27.536Z,7.70
2018-11-14T10:53:54.941Z,7.80
2018-11-14T10:56:22.535Z,7.70
2018-11-14T10:58:50.251Z,7.70
2018-11-14T11:01:23.524Z,7.80
2018-11-14T11:03:56.769Z,7.90
2018-11-14T11:06:36.093Z,7.90
2018-11-14T11:09:13.244Z,7.90
2018-11-14T11:11:47.038Z,7.90
2018-11-14T11:14:20.273Z,8.00
2018-11-14T11:16:53.264Z,8.00
2018-11-14T11:19:24.576Z,8.10
2018-11-14T11:21:52.015Z,8.10
2018-11-14T11:24:20.568Z,8.00
2018-11-14T11:26:48.280Z,8.10
2018-11-14T11:29:15.778Z,8.00
2018-11-14T11:31:43.278Z,8.10
2018-11-14T11:34:11.146Z,8.20
2018-11-14T11:36:39.111Z,8.20
2018-11-14T11:39:10.762Z,8.40
2018-11-14T11:41:38.815Z,8.30
2018-11-14T11:44:06.336Z,8.30
2018-11-14T11:46:33.792Z,8.30
2018-11-14T11:49:01.212Z,8.10
2018-11-14T11:51:28.690Z,8.00
2018-11-14T11:53:56.330Z,8.10
2018-11-14T11:56:23.892Z,8.10
2018-11-14T11:58:51.382Z,8.10
2018-11-14T12:01:19.288Z,8.10
2018-11-14T12:03:46.833Z,8.20
2018-11-14T12:06:14.522Z,8.30
2018-11-14T12:08:41.819Z,8.30
2018-11-14T12:11:09.253Z,8.40
2018-11-14T12:13:36.858Z,8.30
2018-11-14T12:16:04.356Z,8.30
2018-11-14T12:18:31.869Z,8.40
2018-11-14T12:20:59.440Z,8.30
2018-11-14T12:23:26.977Z,8.40
2018-11-14T12:25:54.477Z,8.40
2018-11-14T12:28:22.101Z,8.40
2018-11-14T12:30:49.854Z,8.40
2018-11-14T12:33:17.111Z,8.40
2018-11-14T12:35:44.918Z,8.40
2018-11-14T12:38:12.450Z,8.30
2018-11-14T12:40:39.839Z,8.50
2018-11-14T12:43:07.664Z,8.40
2018-11-14T12:45:35.147Z,8.50
2018-11-14T12:48:02.647Z,8.50
2018-11-14T12:50:30.195Z,8.50
2018-11-14T12:52:57.842Z,8.50
2018-11-14T12:55:25.409Z,8.50
2018-11-14T12:57:52.820Z,8.50
2018-11-14T13:00:21.357Z,8.50
2018-11-14T13:02:48.799Z,8.40
2018-11-14T13:05:16.292Z,8.40
2018-11-14T13:07:44.239Z,8.40
2018-11-14T13:10:13.933Z,8.50
2018-11-14T13:12:42.042Z,8.60
2018-11-14T13:15:10.798Z,8.60
2018-11-14T13:17:38.347Z,8.60
2018-11-14T13:20:08.539Z,8.50
2018-11-14T13:22:36.111Z,8.40
2018-11-14T13:25:04.698Z,8.40
2018-11-14T13:27:32.618Z,8.40
2018-11-14T13:30:00.166Z,8.40
2018-11-14T13:32:27.770Z,8.50
2018-11-14T13:34:55.538Z,8.50
2018-11-14T13:37:23.005Z,8.60
2018-11-14T13:39:50.650Z,8.60
2018-11-14T13:42:18.403Z,8.50
2018-11-14T13:44:45.895Z,8.60
2018-11-14T13:47:13.327Z,8.60
2018-11-14T13:49:41.031Z,8.60
2018-11-14T13:52:08.337Z,8.60
2018-11-14T13:54:35.799Z,8.50
2018-11-14T13:57:03.333Z,8.50
2018-11-14T13:59:30.761Z,8.50
2018-11-14T14:01:58.307Z,8.50
2018-11-14T14:04:25.761Z,8.50
2018-11-14T14:06:53.283Z,8.60
2018-11-14T14:09:20.923Z,8.60
2018-11-14T14:11:48.414Z,8.60
2018-11-14T14:14:17.053Z,8.50
2018-11-14T14:16:45.145Z,8.50
2018-11-14T14:19:13.003Z,8.60
2018-11-14T14:21:40.575Z,8.60
2018-11-14T14:24:08.328Z,8.50
2018-11-14T14:26:36.825Z,8.50
2018-11-14T14:29:04.995Z,8.40
2018-11-14T14:31:32.643Z,8.50
2018-11-14T14:34:00.262Z,8.50
2018-11-14T14:36:27.870Z,8.60
2018-11-14T14:38:55.349Z,8.60
2018-11-14T14:41:22.880Z,8.60
2018-11-14T14:43:50.480Z,8.60
2018-11-14T14:46:18.199Z,8.50
2018-11-14T14:48:45.758Z,8.50
2018-11-14T14:51:13.273Z,8.50
2018-11-14T14:53:40.762Z,8.40
2018-11-14T14:56:08.239Z,8.40
2018-11-14T14:58:35.688Z,8.30
2018-11-14T15:01:03.138Z,8.40
2018-11-14T15:03:30.701Z,8.30
2018-11-14T15:05:58.178Z,8.30
2018-11-14T15:08:25.695Z,8.40
2018-11-14T15:10:53.133Z,8.20
2018-11-14T15:13:20.512Z,8.10
2018-11-14T15:15:48.006Z,8.20
2018-11-14T15:18:15.517Z,8.20
2018-11-14T15:20:42.951Z,8.30
2018-11-14T15:23:10.439Z,8.30
2018-11-14T15:25:38.038Z,8.30
2018-11-14T15:28:05.864Z,8.30
2018-11-14T15:30:33.296Z,8.30
2018-11-14T15:33:00.958Z,8.30
2018-11-14T15:35:28.383Z,8.30
2018-11-14T15:37:55.960Z,8.20
2018-11-14T15:40:25.132Z,8.20
2018-11-14T15:42:52.817Z,8.20
2018-11-14T15:45:22.968Z,8.10
2018-11-14T15:47:51.126Z,8.10
2018-11-14T15:50:20.963Z,8.10
2018-11-14T15:52:49.289Z,8.10
2018-11-14T15:55:17.940Z,8.10
2018-11-14T15:57:45.506Z,8.10
2018-11-14T16:00:15.437Z,8.10
2018-11-14T16:02:42.961Z,8.10
2018-11-14T16:05:12.459Z,8.00
2018-11-14T16:07:41.101Z,8.00
2018-11-14T16:10:09.710Z,8.00
2018-11-14T16:12:38.748Z,8.00
2018-11-14T16:15:07.481Z,8.00
2018-11-14T16:17:35.018Z,7.90
2018-11-14T16:20:02.941Z,8.00
2018-11-14T16:22:30.513Z,7.90
2018-11-14T16:24:58.159Z,7.90
2018-11-14T16:27:25.863Z,7.90
2018-11-14T16:29:53.495Z,8.00
2018-11-14T16:32:21.085Z,8.00
2018-11-14T16:34:48.763Z,7.90
2018-11-14T16:37:16.213Z,7.90
2018-11-14T16:39:43.740Z,8.00
2018-11-14T16:42:11.275Z,7.90
2018-11-14T16:44:38.854Z,8.00
2018-11-14T16:47:06.897Z,7.90
2018-11-14T16:49:34.515Z,7.90
2018-11-14T16:52:02.044Z,7.90
2018-11-14T16:54:29.547Z,7.90
2018-11-14T16:56:57.871Z,7.90
2018-11-14T16:59:25.348Z,7.90
2018-11-14T17:01:52.929Z,7.80
2018-11-14T17:04:20.491Z,7.80
2018-11-14T17:06:48.071Z,7.80
2018-11-14T17:09:15.533Z,7.80
2018-11-14T17:11:43.170Z,7.90
2018-11-14T17:14:10.893Z,7.80
2018-11-14T17:16:38.489Z,7.70
2018-11-14T17:19:06.037Z,7.70
2018-11-14T17:21:34.013Z,7.70
2018-11-14T17:24:01.777Z,7.60
2018-11-14T17:26:29.337Z,7.70
2018-11-14T17:28:56.837Z,7.60
2018-11-14T17:31:24.504Z,7.60
2018-11-14T17:33:52.013Z,7.60
2018-11-14T17:36:19.510Z,7.60
2018-11-14T17:38:47.102Z,7.70
2018-11-14T17:41:14.608Z,7.70
2018-11-14T17:43:42.245Z,7.70
2018-11-14T17:46:09.801Z,7.60
2018-11-14T17:48:37.527Z,7.60
2018-11-14T17:51:05.400Z,7.50
2018-11-14T17:53:32.876Z,7.50
2018-11-14T17:56:00.625Z,7.40
2018-11-14T17:58:28.087Z,7.40
2018-11-14T18:00:55.623Z,7.50
2018-11-14T18:03:23.170Z,7.50
2018-11-14T18:05:50.656Z,7.40
2018-11-14T18:08:18.340Z,7.40
2018-11-14T18:10:45.993Z,7.40
2018-11-14T18:13:13.393Z,7.40
2018-11-14T18:15:42.008Z,7.40
2018-11-14T18:18:09.582Z,7.40
2018-11-14T18:20:37.006Z,7.40
2018-11-14T18:23:05.127Z,7.40
2018-11-14T18:25:32.715Z,7.30
2018-11-14T18:28:01.157Z,7.30
2018-11-14T18:30:29.815Z,7.20
2018-11-14T18:32:58.702Z,7.10
2018-11-14T18:35:26.862Z,7.10
2018-11-14T18:37:55.204Z,6.80
2018-11-14T18:40:25.167Z,6.90
2018-11-14T18:42:52.848Z,6.90
2018-11-14T18:45:22.848Z,6.90
2018-11-14T18:47:51.108Z,7.00
2018-11-14T18:50:19.394Z,7.00
2018-11-14T18:52:47.440Z,7.00
2018-11-14T18:55:16.379Z,7.00
2018-11-14T18:57:44.384Z,7.10
2018-11-14T19:00:16.754Z,7.10
2018-11-14T19:02:44.346Z,7.10
2018-11-14T19:05:12.758Z,7.10
2018-11-14T19:07:40.475Z,7.20
2018-11-14T19:10:09.919Z,7.20
2018-11-14T19:12:38.217Z,7.20
2018-11-14T19:15:08.120Z,7.20
2018-11-14T19:17:35.682Z,7.20
2018-11-14T19:20:03.352Z,7.20
2018-11-14T19:22:30.844Z,7.10
2018-11-14T19:24:58.305Z,7.00
2018-11-14T19:27:25.918Z,7.00
2018-11-14T19:29:53.708Z,7.00
2018-11-14T19:32:21.176Z,6.90
2018-11-14T19:34:48.649Z,6.90
2018-11-14T19:37:16.119Z,6.80
2018-11-14T19:39:43.774Z,6.80
2018-11-14T19:42:11.229Z,6.70
2018-11-14T19:44:38.683Z,6.70
2018-11-14T19:47:06.177Z,6.60
2018-11-14T19:49:33.723Z,6.70
2018-11-14T19:52:01.189Z,6.70
2018-11-14T19:54:28.647Z,6.70
2018-11-14T19:56:57.300Z,6.80
2018-11-14T19:59:24.815Z,6.90
2018-11-14T20:01:52.467Z,6.80
2018-11-14T20:04:19.973Z,6.70
2018-11-14T20:06:47.411Z,6.70
2018-11-14T20:09:14.986Z,6.60
2018-11-14T20:11:42.772Z,6.50
2018-11-14T20:14:10.251Z,6.60
2018-11-14T20:16:38.133Z,6.50
2018-11-14T20:19:05.758Z,6.50
2018-11-14T20:21:33.303Z,6.50
2018-11-14T20:24:00.763Z,6.40
2018-11-14T20:26:28.366Z,6.50
2018-11-14T20:28:55.819Z,6.40
2018-11-14T20:31:23.486Z,6.50
2018-11-14T20:33:51.006Z,6.60
2018-11-14T20:36:19.103Z,6.70
2018-11-14T20:38:47.325Z,6.60
2018-11-14T20:41:14.921Z,6.70
2018-11-14T20:43:42.436Z,6.60
2018-11-14T20:46:10.019Z,6.60
2018-11-14T20:48:37.531Z,6.60
2018-11-14T20:51:05.162Z,6.60
2018-11-14T20:53:32.612Z,6.60
2018-11-14T20:56:00.092Z,6.60
2018-11-14T20:58:27.526Z,6.50
2018-11-14T21:00:55.177Z,6.50
2018-11-14T21:03:22.731Z,6.60
2018-11-14T21:05:50.251Z,6.60
2018-11-14T21:08:17.886Z,6.60
2018-11-14T21:10:45.367Z,6.60
2018-11-14T21:13:12.856Z,6.50
2018-11-14T21:15:40.395Z,6.40
2018-11-14T21:18:08.222Z,6.50
2018-11-14T21:20:35.819Z,6.50
2018-11-14T21:23:03.589Z,6.50
2018-11-14T21:25:31.023Z,6.50
2018-11-14T21:27:58.599Z,6.60
2018-11-14T21:30:27.315Z,6.60
2018-11-14T21:32:54.804Z,6.70
2018-11-14T21:35:24.920Z,6.70
2018-11-14T21:37:53.942Z,6.70
2018-11-14T21:40:21.514Z,6.70
2018-11-14T21:42:49.064Z,6.70
2018-11-14T21:45:18.063Z,6.80
2018-11-14T21:47:51.324Z,6.80
2018-11-14T21:50:19.936Z,6.80
2018-11-14T21:52:48.299Z,6.80
2018-11-14T21:55:16.050Z,6.80
2018-11-14T21:57:43.444Z,6.80
2018-11-14T22:00:13.462Z,6.80
2018-11-14T22:02:42.429Z,6.70
2018-11-14T22:05:10.339Z,6.70
2018-11-14T22:07:37.897Z,6.60
2018-11-14T22:10:08.237Z,6.70
2018-11-14T22:12:35.734Z,6.70
2018-11-14T22:15:03.380Z,6.80
2018-11-14T22:17:30.942Z,6.80
2018-11-14T22:19:58.471Z,6.70
2018-11-14T22:22:26.095Z,6.60
2018-11-14T22:24:53.591Z,6.60
2018-11-14T22:27:21.041Z,6.70
2018-11-14T22:29:48.834Z,6.70
2018-11-14T22:32:16.630Z,6.50
2018-11-14T22:34:44.077Z,6.50
2018-11-14T22:37:11.660Z,6.50
2018-11-14T22:39:39.364Z,6.60
2018-11-14T22:42:06.953Z,6.50
2018-11-14T22:44:34.531Z,6.50
2018-11-14T22:47:02.014Z,6.60
2018-11-14T22:49:29.411Z,6.70
2018-11-14T22:51:56.963Z,6.70
2018-11-14T22:54:24.495Z,6.70
2018-11-14T22:56:52.065Z,6.70
2018-11-14T22:59:19.606Z,6.70
2018-11-14T23:01:47.165Z,6.80
2018-11-14T23:04:14.607Z,6.70
2018-11-14T23:06:42.052Z,6.60
2018-11-14T23:09:11.952Z,6.60
2018-11-14T23:11:40.755Z,6.60
2018-11-14T23:14:08.181Z,6.70
2018-11-14T23:16:36.623Z,6.80
2018-11-14T23:19:04.688Z,6.80
2018-11-14T23:21:32.513Z,6.80
2018-11-14T23:24:00.978Z,6.90
2018-11-14T23:26:29.025Z,6.80
2018-11-14T23:28:56.519Z,6.80
2018-11-14T23:31:24.060Z,6.80
2018-11-14T23:33:51.534Z,6.80
2018-11-14T23:36:18.929Z,6.80
2018-11-14T23:38:46.428Z,6.80
2018-11-14T23:41:13.851Z,6.80
2018-11-14T23:43:41.494Z,6.80
2018-11-14T23:46:09.064Z,6.80
2018-11-14T23:48:36.626Z,6.80
2018-11-14T23:51:05.468Z,6.80
2018-11-14T23:53:33.034Z,6.70
2018-11-14T23:56:00.554Z,6.80
2018-11-14T23:58:28.010Z,6.80
